sensor_id;sensor_type;location;lat;lon;timestamp;P1;durP1;ratioP1;P2;durP2;ratioP2
20142;SDS011;10509;46.476;7.134;2023-03-01T00:01:04;21.40;;;20.00;;
20142;SDS011;10509;46.476;7.134;2023-03-01T00:03:32;22.13;;;20.73;;
20142;SDS011;10509;46.476;7.134;2023-03-01T00:05:58;22.83;;;21.13;;
20142;SDS011;10509;46.476;7.134;2023-03-01T00:08:24;24.13;;;21.93;;
20142;SDS011;10509;46.476;7.134;2023-03-01T00:13:47;21.43;;;19.53;;
20142;SDS011;10509;46.476;7.134;2023-03-01T00:16:17;21.73;;;20.33;;
20142;SDS011;10509;46.476;7.134;2023-03-01T00:18:44;22.30;;;20.17;;
20142;SDS011;10509;46.476;7.134;2023-03-01T00:21:11;21.03;;;19.63;;
20142;SDS011;10509;46.476;7.134;2023-03-01T00:23:37;20.63;;;19.30;;
20142;SDS011;10509;46.476;7.134;2023-03-01T00:26:07;21.60;;;20.23;;
20142;SDS011;10509;46.476;7.134;2023-03-01T00:28:33;21.40;;;19.83;;
20142;SDS011;10509;46.476;7.134;2023-03-01T00:31:07;21.83;;;20.43;;
20142;SDS011;10509;46.476;7.134;2023-03-01T00:33:33;24.10;;;22.20;;
20142;SDS011;10509;46.476;7.134;2023-03-01T00:35:59;21.93;;;20.63;;
20142;SDS011;10509;46.476;7.134;2023-03-01T00:38:26;21.70;;;20.30;;
20142;SDS011;10509;46.476;7.134;2023-03-01T00:40:52;21.23;;;19.83;;
20142;SDS011;10509;46.476;7.134;2023-03-01T00:43:18;21.67;;;20.03;;
20142;SDS011;10509;46.476;7.134;2023-03-01T00:45:44;20.87;;;19.47;;
20142;SDS011;10509;46.476;7.134;2023-03-01T00:48:10;22.20;;;20.73;;
20142;SDS011;10509;46.476;7.134;2023-03-01T00:50:36;21.97;;;20.47;;
20142;SDS011;10509;46.476;7.134;2023-03-01T00:53:02;22.67;;;21.10;;
20142;SDS011;10509;46.476;7.134;2023-03-01T00:55:30;22.83;;;21.00;;
20142;SDS011;10509;46.476;7.134;2023-03-01T00:57:56;22.00;;;20.50;;
20142;SDS011;10509;46.476;7.134;2023-03-01T01:00:22;20.73;;;19.43;;
20142;SDS011;10509;46.476;7.134;2023-03-01T01:02:48;23.03;;;21.33;;
20142;SDS011;10509;46.476;7.134;2023-03-01T01:05:14;21.50;;;20.10;;
20142;SDS011;10509;46.476;7.134;2023-03-01T01:07:46;22.87;;;21.37;;
20142;SDS011;10509;46.476;7.134;2023-03-01T01:10:12;22.53;;;21.00;;
20142;SDS011;10509;46.476;7.134;2023-03-01T01:12:41;23.27;;;21.70;;
20142;SDS011;10509;46.476;7.134;2023-03-01T01:15:08;22.47;;;20.93;;
20142;SDS011;10509;46.476;7.134;2023-03-01T01:17:37;22.87;;;21.20;;
20142;SDS011;10509;46.476;7.134;2023-03-01T01:20:03;24.27;;;22.50;;
20142;SDS011;10509;46.476;7.134;2023-03-01T01:22:29;23.50;;;21.80;;
20142;SDS011;10509;46.476;7.134;2023-03-01T01:24:55;21.13;;;19.80;;
20142;SDS011;10509;46.476;7.134;2023-03-01T01:27:21;23.17;;;21.20;;
20142;SDS011;10509;46.476;7.134;2023-03-01T01:29:47;23.20;;;21.60;;
20142;SDS011;10509;46.476;7.134;2023-03-01T01:32:13;22.17;;;20.60;;
20142;SDS011;10509;46.476;7.134;2023-03-01T01:34:39;21.77;;;20.40;;
20142;SDS011;10509;46.476;7.134;2023-03-01T01:37:05;22.73;;;21.33;;
20142;SDS011;10509;46.476;7.134;2023-03-01T01:39:33;24.00;;;22.27;;
20142;SDS011;10509;46.476;7.134;2023-03-01T01:41:59;21.77;;;20.43;;
20142;SDS011;10509;46.476;7.134;2023-03-01T01:44:26;22.40;;;20.87;;
20142;SDS011;10509;46.476;7.134;2023-03-01T01:51:45;23.60;;;22.17;;
20142;SDS011;10509;46.476;7.134;2023-03-01T01:54:20;24.27;;;22.70;;
20142;SDS011;10509;46.476;7.134;2023-03-01T01:56:52;24.47;;;22.83;;
20142;SDS011;10509;46.476;7.134;2023-03-01T01:59:19;21.67;;;20.37;;
20142;SDS011;10509;46.476;7.134;2023-03-01T02:01:49;24.90;;;23.30;;
20142;SDS011;10509;46.476;7.134;2023-03-01T02:04:15;23.80;;;22.30;;
20142;SDS011;10509;46.476;7.134;2023-03-01T02:06:42;23.03;;;21.53;;
20142;SDS011;10509;46.476;7.134;2023-03-01T02:09:11;23.70;;;22.07;;
20142;SDS011;10509;46.476;7.134;2023-03-01T02:11:38;21.63;;;20.33;;
20142;SDS011;10509;46.476;7.134;2023-03-01T02:14:04;23.43;;;21.93;;
20142;SDS011;10509;46.476;7.134;2023-03-01T02:16:30;22.03;;;20.73;;
20142;SDS011;10509;46.476;7.134;2023-03-01T02:18:56;22.47;;;21.07;;
20142;SDS011;10509;46.476;7.134;2023-03-01T02:23:54;21.47;;;20.20;;
20142;SDS011;10509;46.476;7.134;2023-03-01T02:29:16;21.77;;;20.47;;
20142;SDS011;10509;46.476;7.134;2023-03-01T02:31:42;22.20;;;20.70;;
20142;SDS011;10509;46.476;7.134;2023-03-01T02:34:10;22.43;;;21.00;;
20142;SDS011;10509;46.476;7.134;2023-03-01T02:36:40;22.20;;;20.90;;
20142;SDS011;10509;46.476;7.134;2023-03-01T02:39:08;23.60;;;22.10;;
20142;SDS011;10509;46.476;7.134;2023-03-01T02:41:39;21.50;;;20.13;;
20142;SDS011;10509;46.476;7.134;2023-03-01T02:44:06;24.70;;;23.10;;
20142;SDS011;10509;46.476;7.134;2023-03-01T02:46:33;24.47;;;22.87;;
20142;SDS011;10509;46.476;7.134;2023-03-01T02:48:59;22.83;;;21.43;;
20142;SDS011;10509;46.476;7.134;2023-03-01T02:54:27;24.80;;;22.77;;
20142;SDS011;10509;46.476;7.134;2023-03-01T02:56:54;24.47;;;22.97;;
20142;SDS011;10509;46.476;7.134;2023-03-01T02:59:22;23.97;;;22.37;;
20142;SDS011;10509;46.476;7.134;2023-03-01T03:01:50;23.37;;;21.87;;
20142;SDS011;10509;46.476;7.134;2023-03-01T03:04:17;25.40;;;23.60;;
20142;SDS011;10509;46.476;7.134;2023-03-01T03:06:47;24.77;;;22.97;;
20142;SDS011;10509;46.476;7.134;2023-03-01T03:09:14;25.37;;;23.53;;
20142;SDS011;10509;46.476;7.134;2023-03-01T03:11:40;25.20;;;23.43;;
20142;SDS011;10509;46.476;7.134;2023-03-01T03:14:08;23.97;;;22.43;;
20142;SDS011;10509;46.476;7.134;2023-03-01T03:16:39;23.57;;;22.07;;
20142;SDS011;10509;46.476;7.134;2023-03-01T03:19:05;24.80;;;23.00;;
20142;SDS011;10509;46.476;7.134;2023-03-01T03:21:31;25.63;;;23.93;;
20142;SDS011;10509;46.476;7.134;2023-03-01T03:23:58;27.20;;;25.20;;
20142;SDS011;10509;46.476;7.134;2023-03-01T03:26:24;26.40;;;24.40;;
20142;SDS011;10509;46.476;7.134;2023-03-01T03:28:50;25.03;;;23.23;;
20142;SDS011;10509;46.476;7.134;2023-03-01T03:31:16;23.63;;;22.13;;
20142;SDS011;10509;46.476;7.134;2023-03-01T03:33:43;25.97;;;24.07;;
20142;SDS011;10509;46.476;7.134;2023-03-01T03:36:09;24.73;;;23.07;;
20142;SDS011;10509;46.476;7.134;2023-03-01T03:38:38;24.27;;;22.57;;
20142;SDS011;10509;46.476;7.134;2023-03-01T03:41:05;23.90;;;22.33;;
20142;SDS011;10509;46.476;7.134;2023-03-01T03:43:32;23.60;;;22.13;;
20142;SDS011;10509;46.476;7.134;2023-03-01T03:45:59;23.17;;;21.70;;
20142;SDS011;10509;46.476;7.134;2023-03-01T03:48:25;23.70;;;22.00;;
20142;SDS011;10509;46.476;7.134;2023-03-01T03:50:52;23.57;;;22.07;;
20142;SDS011;10509;46.476;7.134;2023-03-01T03:53:19;26.20;;;24.33;;
20142;SDS011;10509;46.476;7.134;2023-03-01T03:55:45;25.40;;;23.63;;
20142;SDS011;10509;46.476;7.134;2023-03-01T03:58:14;25.77;;;23.97;;
20142;SDS011;10509;46.476;7.134;2023-03-01T04:00:42;22.83;;;21.43;;
20142;SDS011;10509;46.476;7.134;2023-03-01T04:03:08;23.10;;;21.70;;
20142;SDS011;10509;46.476;7.134;2023-03-01T04:05:35;21.77;;;20.40;;
20142;SDS011;10509;46.476;7.134;2023-03-01T04:08:01;23.43;;;21.90;;
20142;SDS011;10509;46.476;7.134;2023-03-01T04:10:29;25.37;;;23.20;;
20142;SDS011;10509;46.476;7.134;2023-03-01T04:12:55;24.60;;;22.90;;
20142;SDS011;10509;46.476;7.134;2023-03-01T04:15:22;23.07;;;21.67;;
20142;SDS011;10509;46.476;7.134;2023-03-01T04:17:49;20.40;;;19.27;;
20142;SDS011;10509;46.476;7.134;2023-03-01T04:20:18;17.83;;;16.83;;
20142;SDS011;10509;46.476;7.134;2023-03-01T04:22:49;17.70;;;16.63;;
20142;SDS011;10509;46.476;7.134;2023-03-01T04:25:16;16.93;;;15.73;;
20142;SDS011;10509;46.476;7.134;2023-03-01T04:27:42;16.83;;;15.83;;
20142;SDS011;10509;46.476;7.134;2023-03-01T04:30:08;18.27;;;17.23;;
20142;SDS011;10509;46.476;7.134;2023-03-01T04:32:34;17.53;;;16.53;;
20142;SDS011;10509;46.476;7.134;2023-03-01T04:35:00;17.93;;;16.93;;
20142;SDS011;10509;46.476;7.134;2023-03-01T04:37:27;23.80;;;22.03;;
20142;SDS011;10509;46.476;7.134;2023-03-01T04:39:53;24.53;;;22.80;;
20142;SDS011;10509;46.476;7.134;2023-03-01T04:42:19;24.17;;;22.47;;
20142;SDS011;10509;46.476;7.134;2023-03-01T04:44:45;24.37;;;22.67;;
20142;SDS011;10509;46.476;7.134;2023-03-01T04:47:11;25.00;;;23.23;;
20142;SDS011;10509;46.476;7.134;2023-03-01T04:49:38;21.87;;;20.37;;
20142;SDS011;10509;46.476;7.134;2023-03-01T04:52:04;23.47;;;21.57;;
20142;SDS011;10509;46.476;7.134;2023-03-01T04:54:31;20.93;;;19.63;;
20142;SDS011;10509;46.476;7.134;2023-03-01T04:56:57;25.10;;;23.40;;
20142;SDS011;10509;46.476;7.134;2023-03-01T04:59:23;23.03;;;21.70;;
20142;SDS011;10509;46.476;7.134;2023-03-01T05:01:53;25.30;;;23.60;;
20142;SDS011;10509;46.476;7.134;2023-03-01T05:04:22;23.30;;;21.60;;
20142;SDS011;10509;46.476;7.134;2023-03-01T05:06:48;23.13;;;21.57;;
20142;SDS011;10509;46.476;7.134;2023-03-01T05:09:14;19.13;;;18.03;;
20142;SDS011;10509;46.476;7.134;2023-03-01T05:11:40;16.30;;;15.40;;
20142;SDS011;10509;46.476;7.134;2023-03-01T05:14:07;18.47;;;17.27;;
20142;SDS011;10509;46.476;7.134;2023-03-01T05:16:34;19.37;;;18.10;;
20142;SDS011;10509;46.476;7.134;2023-03-01T05:19:01;18.50;;;17.40;;
20142;SDS011;10509;46.476;7.134;2023-03-01T05:21:36;19.43;;;18.10;;
20142;SDS011;10509;46.476;7.134;2023-03-01T05:24:22;18.43;;;17.43;;
20142;SDS011;10509;46.476;7.134;2023-03-01T05:26:48;18.30;;;17.10;;
20142;SDS011;10509;46.476;7.134;2023-03-01T05:29:14;16.87;;;15.80;;
20142;SDS011;10509;46.476;7.134;2023-03-01T05:31:40;18.13;;;17.03;;
20142;SDS011;10509;46.476;7.134;2023-03-01T05:34:06;17.50;;;16.37;;
20142;SDS011;10509;46.476;7.134;2023-03-01T05:36:32;17.97;;;16.87;;
20142;SDS011;10509;46.476;7.134;2023-03-01T05:38:59;19.63;;;18.43;;
20142;SDS011;10509;46.476;7.134;2023-03-01T05:41:25;17.57;;;16.53;;
20142;SDS011;10509;46.476;7.134;2023-03-01T05:43:51;18.43;;;17.33;;
20142;SDS011;10509;46.476;7.134;2023-03-01T05:46:17;19.13;;;18.03;;
20142;SDS011;10509;46.476;7.134;2023-03-01T05:48:43;18.17;;;17.07;;
20142;SDS011;10509;46.476;7.134;2023-03-01T05:51:09;18.93;;;17.53;;
20142;SDS011;10509;46.476;7.134;2023-03-01T05:53:36;17.33;;;16.07;;
20142;SDS011;10509;46.476;7.134;2023-03-01T05:56:03;18.90;;;16.90;;
20142;SDS011;10509;46.476;7.134;2023-03-01T05:58:29;17.60;;;16.30;;
20142;SDS011;10509;46.476;7.134;2023-03-01T06:00:55;16.00;;;15.10;;
20142;SDS011;10509;46.476;7.134;2023-03-01T06:03:21;17.90;;;16.70;;
20142;SDS011;10509;46.476;7.134;2023-03-01T06:05:47;17.53;;;16.53;;
20142;SDS011;10509;46.476;7.134;2023-03-01T06:08:13;15.37;;;14.47;;
20142;SDS011;10509;46.476;7.134;2023-03-01T06:10:39;17.60;;;16.60;;
20142;SDS011;10509;46.476;7.134;2023-03-01T06:13:06;16.80;;;15.47;;
20142;SDS011;10509;46.476;7.134;2023-03-01T06:15:32;18.40;;;17.00;;
20142;SDS011;10509;46.476;7.134;2023-03-01T06:17:58;16.97;;;15.77;;
20142;SDS011;10509;46.476;7.134;2023-03-01T06:20:25;16.60;;;15.60;;
20142;SDS011;10509;46.476;7.134;2023-03-01T06:22:51;17.47;;;16.47;;
20142;SDS011;10509;46.476;7.134;2023-03-01T06:25:19;16.27;;;15.37;;
20142;SDS011;10509;46.476;7.134;2023-03-01T06:27:45;16.60;;;15.50;;
20142;SDS011;10509;46.476;7.134;2023-03-01T06:30:12;16.47;;;15.40;;
20142;SDS011;10509;46.476;7.134;2023-03-01T06:32:39;15.80;;;14.80;;
20142;SDS011;10509;46.476;7.134;2023-03-01T06:35:09;16.67;;;15.77;;
20142;SDS011;10509;46.476;7.134;2023-03-01T06:37:35;17.37;;;16.37;;
20142;SDS011;10509;46.476;7.134;2023-03-01T06:40:02;15.30;;;14.30;;
20142;SDS011;10509;46.476;7.134;2023-03-01T06:42:36;16.27;;;15.27;;
20142;SDS011;10509;46.476;7.134;2023-03-01T06:45:03;17.03;;;15.83;;
20142;SDS011;10509;46.476;7.134;2023-03-01T06:47:29;15.27;;;14.37;;
20142;SDS011;10509;46.476;7.134;2023-03-01T06:49:55;16.77;;;15.87;;
20142;SDS011;10509;46.476;7.134;2023-03-01T06:52:22;18.27;;;15.90;;
20142;SDS011;10509;46.476;7.134;2023-03-01T06:54:48;20.33;;;15.10;;
20142;SDS011;10509;46.476;7.134;2023-03-01T06:57:14;14.53;;;13.70;;
20142;SDS011;10509;46.476;7.134;2023-03-01T06:59:40;16.90;;;15.67;;
20142;SDS011;10509;46.476;7.134;2023-03-01T07:02:06;14.37;;;13.33;;
20142;SDS011;10509;46.476;7.134;2023-03-01T07:04:32;28.70;;;14.50;;
20142;SDS011;10509;46.476;7.134;2023-03-01T07:06:58;22.07;;;15.40;;
20142;SDS011;10509;46.476;7.134;2023-03-01T07:09:24;16.50;;;15.07;;
20142;SDS011;10509;46.476;7.134;2023-03-01T07:11:50;16.73;;;15.43;;
20142;SDS011;10509;46.476;7.134;2023-03-01T07:14:16;17.10;;;15.33;;
20142;SDS011;10509;46.476;7.134;2023-03-01T07:16:42;18.03;;;16.43;;
20142;SDS011;10509;46.476;7.134;2023-03-01T07:19:08;17.77;;;16.57;;
20142;SDS011;10509;46.476;7.134;2023-03-01T07:21:34;24.13;;;18.47;;
20142;SDS011;10509;46.476;7.134;2023-03-01T07:24:00;18.57;;;17.37;;
20142;SDS011;10509;46.476;7.134;2023-03-01T07:26:26;17.70;;;16.63;;
20142;SDS011;10509;46.476;7.134;2023-03-01T07:28:52;17.33;;;16.33;;
20142;SDS011;10509;46.476;7.134;2023-03-01T07:31:18;18.10;;;16.87;;
20142;SDS011;10509;46.476;7.134;2023-03-01T07:33:44;18.27;;;17.23;;
20142;SDS011;10509;46.476;7.134;2023-03-01T07:36:10;19.90;;;18.60;;
20142;SDS011;10509;46.476;7.134;2023-03-01T07:38:36;19.60;;;18.50;;
20142;SDS011;10509;46.476;7.134;2023-03-01T07:41:03;19.30;;;18.10;;
20142;SDS011;10509;46.476;7.134;2023-03-01T07:43:30;20.00;;;18.60;;
20142;SDS011;10509;46.476;7.134;2023-03-01T07:46:00;19.70;;;18.37;;
20142;SDS011;10509;46.476;7.134;2023-03-01T07:48:26;20.20;;;18.80;;
20142;SDS011;10509;46.476;7.134;2023-03-01T07:50:52;19.13;;;17.83;;
20142;SDS011;10509;46.476;7.134;2023-03-01T07:53:18;18.63;;;17.47;;
20142;SDS011;10509;46.476;7.134;2023-03-01T07:55:44;17.73;;;16.73;;
20142;SDS011;10509;46.476;7.134;2023-03-01T07:58:10;18.57;;;17.37;;
20142;SDS011;10509;46.476;7.134;2023-03-01T08:00:36;18.87;;;17.37;;
20142;SDS011;10509;46.476;7.134;2023-03-01T08:03:02;19.20;;;18.00;;
20142;SDS011;10509;46.476;7.134;2023-03-01T08:05:28;19.63;;;18.27;;
20142;SDS011;10509;46.476;7.134;2023-03-01T08:07:54;19.10;;;17.70;;
20142;SDS011;10509;46.476;7.134;2023-03-01T08:10:20;18.10;;;17.00;;
20142;SDS011;10509;46.476;7.134;2023-03-01T08:12:46;18.53;;;17.53;;
20142;SDS011;10509;46.476;7.134;2023-03-01T08:15:12;18.93;;;17.77;;
20142;SDS011;10509;46.476;7.134;2023-03-01T08:17:38;18.23;;;17.13;;
20142;SDS011;10509;46.476;7.134;2023-03-01T08:20:04;18.90;;;17.70;;
20142;SDS011;10509;46.476;7.134;2023-03-01T08:22:32;17.70;;;16.57;;
20142;SDS011;10509;46.476;7.134;2023-03-01T08:24:58;18.20;;;17.03;;
20142;SDS011;10509;46.476;7.134;2023-03-01T08:27:24;17.80;;;16.60;;
20142;SDS011;10509;46.476;7.134;2023-03-01T08:29:50;18.27;;;17.07;;
20142;SDS011;10509;46.476;7.134;2023-03-01T08:32:16;17.60;;;16.60;;
20142;SDS011;10509;46.476;7.134;2023-03-01T08:34:42;18.53;;;17.07;;
20142;SDS011;10509;46.476;7.134;2023-03-01T08:37:08;17.10;;;15.93;;
20142;SDS011;10509;46.476;7.134;2023-03-01T08:39:34;18.03;;;17.03;;
20142;SDS011;10509;46.476;7.134;2023-03-01T08:42:00;17.87;;;16.53;;
20142;SDS011;10509;46.476;7.134;2023-03-01T08:44:26;17.77;;;16.70;;
20142;SDS011;10509;46.476;7.134;2023-03-01T08:46:52;17.47;;;16.37;;
20142;SDS011;10509;46.476;7.134;2023-03-01T08:49:20;16.87;;;15.87;;
20142;SDS011;10509;46.476;7.134;2023-03-01T08:51:47;17.03;;;15.97;;
20142;SDS011;10509;46.476;7.134;2023-03-01T08:54:14;17.20;;;16.10;;
20142;SDS011;10509;46.476;7.134;2023-03-01T08:56:41;18.93;;;17.13;;
20142;SDS011;10509;46.476;7.134;2023-03-01T08:59:07;17.00;;;15.80;;
20142;SDS011;10509;46.476;7.134;2023-03-01T09:01:33;16.53;;;15.43;;
20142;SDS011;10509;46.476;7.134;2023-03-01T09:03:59;17.70;;;16.53;;
20142;SDS011;10509;46.476;7.134;2023-03-01T09:06:25;17.07;;;15.90;;
20142;SDS011;10509;46.476;7.134;2023-03-01T09:08:51;16.50;;;15.40;;
20142;SDS011;10509;46.476;7.134;2023-03-01T09:11:19;16.83;;;15.63;;
20142;SDS011;10509;46.476;7.134;2023-03-01T09:13:46;16.13;;;15.23;;
20142;SDS011;10509;46.476;7.134;2023-03-01T09:16:13;16.73;;;15.63;;
20142;SDS011;10509;46.476;7.134;2023-03-01T09:18:39;15.70;;;14.80;;
20142;SDS011;10509;46.476;7.134;2023-03-01T09:21:12;16.60;;;15.60;;
20142;SDS011;10509;46.476;7.134;2023-03-01T09:23:40;17.30;;;16.00;;
20142;SDS011;10509;46.476;7.134;2023-03-01T09:26:07;16.77;;;15.77;;
20142;SDS011;10509;46.476;7.134;2023-03-01T09:28:34;17.73;;;16.50;;
20142;SDS011;10509;46.476;7.134;2023-03-01T09:31:00;18.87;;;17.13;;
20142;SDS011;10509;46.476;7.134;2023-03-01T09:33:27;17.83;;;16.50;;
20142;SDS011;10509;46.476;7.134;2023-03-01T09:35:57;15.33;;;14.37;;
20142;SDS011;10509;46.476;7.134;2023-03-01T09:38:23;15.97;;;14.73;;
20142;SDS011;10509;46.476;7.134;2023-03-01T09:40:49;15.90;;;14.97;;
20142;SDS011;10509;46.476;7.134;2023-03-01T09:43:18;15.13;;;14.13;;
20142;SDS011;10509;46.476;7.134;2023-03-01T09:45:47;16.63;;;15.17;;
20142;SDS011;10509;46.476;7.134;2023-03-01T09:48:22;16.23;;;14.77;;
20142;SDS011;10509;46.476;7.134;2023-03-01T09:50:49;15.50;;;14.60;;
20142;SDS011;10509;46.476;7.134;2023-03-01T09:53:17;16.67;;;15.50;;
20142;SDS011;10509;46.476;7.134;2023-03-01T10:00:56;16.27;;;15.07;;
20142;SDS011;10509;46.476;7.134;2023-03-01T10:11:04;15.60;;;14.60;;
20142;SDS011;10509;46.476;7.134;2023-03-01T10:13:46;15.10;;;13.83;;
20142;SDS011;10509;46.476;7.134;2023-03-01T10:16:18;14.97;;;14.07;;
20142;SDS011;10509;46.476;7.134;2023-03-01T10:18:46;16.13;;;15.10;;
20142;SDS011;10509;46.476;7.134;2023-03-01T10:21:18;15.93;;;14.87;;
20142;SDS011;10509;46.476;7.134;2023-03-01T10:23:45;15.97;;;14.93;;
20142;SDS011;10509;46.476;7.134;2023-03-01T10:28:41;16.80;;;15.73;;
20142;SDS011;10509;46.476;7.134;2023-03-01T10:31:13;16.10;;;15.20;;
20142;SDS011;10509;46.476;7.134;2023-03-01T10:33:40;17.43;;;16.03;;
20142;SDS011;10509;46.476;7.134;2023-03-01T10:36:07;17.23;;;15.93;;
20142;SDS011;10509;46.476;7.134;2023-03-01T10:38:50;17.20;;;15.90;;
20142;SDS011;10509;46.476;7.134;2023-03-01T10:41:17;17.27;;;16.00;;
20142;SDS011;10509;46.476;7.134;2023-03-01T10:43:51;16.73;;;15.63;;
20142;SDS011;10509;46.476;7.134;2023-03-01T10:49:34;17.77;;;16.17;;
20142;SDS011;10509;46.476;7.134;2023-03-01T10:51:40;17.47;;;16.03;;
20142;SDS011;10509;46.476;7.134;2023-03-01T10:54:17;18.10;;;16.77;;
20142;SDS011;10509;46.476;7.134;2023-03-01T10:56:50;16.70;;;15.70;;
20142;SDS011;10509;46.476;7.134;2023-03-01T10:59:26;19.50;;;17.53;;
20142;SDS011;10509;46.476;7.134;2023-03-01T11:04:37;19.07;;;17.40;;
20142;SDS011;10509;46.476;7.134;2023-03-01T11:07:03;18.33;;;16.87;;
20142;SDS011;10509;46.476;7.134;2023-03-01T11:09:33;19.20;;;17.70;;
20142;SDS011;10509;46.476;7.134;2023-03-01T11:12:08;18.93;;;17.73;;
20142;SDS011;10509;46.476;7.134;2023-03-01T11:14:39;18.60;;;17.47;;
20142;SDS011;10509;46.476;7.134;2023-03-01T11:17:12;18.63;;;17.43;;
20142;SDS011;10509;46.476;7.134;2023-03-01T11:19:40;18.60;;;17.50;;
20142;SDS011;10509;46.476;7.134;2023-03-01T11:27:06;17.93;;;16.73;;
20142;SDS011;10509;46.476;7.134;2023-03-01T11:29:37;19.07;;;17.97;;
20142;SDS011;10509;46.476;7.134;2023-03-01T11:32:06;18.10;;;17.00;;
20142;SDS011;10509;46.476;7.134;2023-03-01T11:34:40;18.90;;;17.70;;
20142;SDS011;10509;46.476;7.134;2023-03-01T11:37:11;19.47;;;18.00;;
20142;SDS011;10509;46.476;7.134;2023-03-01T11:39:43;18.67;;;17.57;;
20142;SDS011;10509;46.476;7.134;2023-03-01T11:42:14;18.57;;;17.37;;
20142;SDS011;10509;46.476;7.134;2023-03-01T11:44:41;18.57;;;17.37;;
20142;SDS011;10509;46.476;7.134;2023-03-01T11:47:18;18.77;;;17.57;;
20142;SDS011;10509;46.476;7.134;2023-03-01T11:50:02;18.77;;;17.57;;
20142;SDS011;10509;46.476;7.134;2023-03-01T11:52:43;19.33;;;18.13;;
20142;SDS011;10509;46.476;7.134;2023-03-01T12:05:38;20.30;;;18.60;;
20142;SDS011;10509;46.476;7.134;2023-03-01T12:10:43;19.73;;;18.33;;
20142;SDS011;10509;46.476;7.134;2023-03-01T12:13:27;19.57;;;18.37;;
20142;SDS011;10509;46.476;7.134;2023-03-01T12:16:07;20.43;;;19.07;;
20142;SDS011;10509;46.476;7.134;2023-03-01T12:23:45;19.27;;;17.93;;
20142;SDS011;10509;46.476;7.134;2023-03-01T12:26:34;18.63;;;17.53;;
20142;SDS011;10509;46.476;7.134;2023-03-01T12:47:46;20.60;;;18.70;;
20142;SDS011;10509;46.476;7.134;2023-03-01T12:50:20;20.53;;;19.03;;
20142;SDS011;10509;46.476;7.134;2023-03-01T12:55:27;21.10;;;19.50;;
20142;SDS011;10509;46.476;7.134;2023-03-01T12:58:02;21.30;;;19.43;;
20142;SDS011;10509;46.476;7.134;2023-03-01T13:01:00;20.37;;;19.00;;
20142;SDS011;10509;46.476;7.134;2023-03-01T13:11:03;20.70;;;19.30;;
20142;SDS011;10509;46.476;7.134;2023-03-01T13:13:30;20.93;;;19.63;;
20142;SDS011;10509;46.476;7.134;2023-03-01T13:15:56;21.30;;;19.80;;
20142;SDS011;10509;46.476;7.134;2023-03-01T13:20:51;22.43;;;20.43;;
20142;SDS011;10509;46.476;7.134;2023-03-01T13:31:04;22.13;;;20.33;;
20142;SDS011;10509;46.476;7.134;2023-03-01T13:35:58;23.07;;;21.20;;
20142;SDS011;10509;46.476;7.134;2023-03-01T13:41:09;23.40;;;21.37;;
20142;SDS011;10509;46.476;7.134;2023-03-01T13:43:36;21.80;;;20.40;;
20142;SDS011;10509;46.476;7.134;2023-03-01T13:46:10;24.20;;;21.97;;
20142;SDS011;10509;46.476;7.134;2023-03-01T13:48:37;24.30;;;22.30;;
20142;SDS011;10509;46.476;7.134;2023-03-01T13:51:05;23.83;;;21.97;;
20142;SDS011;10509;46.476;7.134;2023-03-01T13:53:50;23.93;;;22.20;;
20142;SDS011;10509;46.476;7.134;2023-03-01T13:56:19;24.63;;;22.80;;
20142;SDS011;10509;46.476;7.134;2023-03-01T13:58:55;24.60;;;22.53;;
20142;SDS011;10509;46.476;7.134;2023-03-01T14:01:31;25.27;;;23.43;;
20142;SDS011;10509;46.476;7.134;2023-03-01T14:03:57;25.43;;;23.60;;
20142;SDS011;10509;46.476;7.134;2023-03-01T14:06:31;26.00;;;24.07;;
20142;SDS011;10509;46.476;7.134;2023-03-01T14:09:14;26.13;;;24.17;;
20142;SDS011;10509;46.476;7.134;2023-03-01T14:19:56;26.93;;;23.87;;
20142;SDS011;10509;46.476;7.134;2023-03-01T14:22:24;25.17;;;23.17;;
20142;SDS011;10509;46.476;7.134;2023-03-01T14:24:54;25.47;;;23.37;;
20142;SDS011;10509;46.476;7.134;2023-03-01T14:27:21;26.53;;;24.30;;
20142;SDS011;10509;46.476;7.134;2023-03-01T14:29:56;26.57;;;24.53;;
20142;SDS011;10509;46.476;7.134;2023-03-01T14:32:26;26.00;;;23.77;;
20142;SDS011;10509;46.476;7.134;2023-03-01T14:34:52;26.20;;;23.87;;
20142;SDS011;10509;46.476;7.134;2023-03-01T14:37:23;24.53;;;22.60;;
20142;SDS011;10509;46.476;7.134;2023-03-01T14:39:50;26.57;;;24.23;;
20142;SDS011;10509;46.476;7.134;2023-03-01T14:42:17;25.67;;;23.17;;
20142;SDS011;10509;46.476;7.134;2023-03-01T14:44:44;28.80;;;24.70;;
20142;SDS011;10509;46.476;7.134;2023-03-01T14:47:16;25.60;;;23.60;;
20142;SDS011;10509;46.476;7.134;2023-03-01T14:49:45;25.93;;;23.87;;
20142;SDS011;10509;46.476;7.134;2023-03-01T14:52:20;27.47;;;24.77;;
20142;SDS011;10509;46.476;7.134;2023-03-01T14:54:48;25.90;;;23.47;;
20142;SDS011;10509;46.476;7.134;2023-03-01T14:59:41;25.13;;;23.13;;
20142;SDS011;10509;46.476;7.134;2023-03-01T15:02:08;25.60;;;23.47;;
20142;SDS011;10509;46.476;7.134;2023-03-01T15:04:37;26.67;;;24.63;;
20142;SDS011;10509;46.476;7.134;2023-03-01T15:07:03;26.17;;;23.97;;
20142;SDS011;10509;46.476;7.134;2023-03-01T15:09:29;25.63;;;23.47;;
20142;SDS011;10509;46.476;7.134;2023-03-01T15:11:57;26.03;;;23.73;;
20142;SDS011;10509;46.476;7.134;2023-03-01T15:14:27;25.73;;;23.47;;
20142;SDS011;10509;46.476;7.134;2023-03-01T15:16:54;26.80;;;24.40;;
20142;SDS011;10509;46.476;7.134;2023-03-01T15:19:28;26.57;;;24.40;;
20142;SDS011;10509;46.476;7.134;2023-03-01T15:23:26;26.80;;;24.40;;
20142;SDS011;10509;46.476;7.134;2023-03-01T15:25:53;27.30;;;24.70;;
20142;SDS011;10509;46.476;7.134;2023-03-01T15:28:23;26.50;;;24.47;;
20142;SDS011;10509;46.476;7.134;2023-03-01T15:30:57;25.63;;;23.60;;
20142;SDS011;10509;46.476;7.134;2023-03-01T15:35:52;27.70;;;24.93;;
20142;SDS011;10509;46.476;7.134;2023-03-01T15:38:25;76.17;;;28.83;;
20142;SDS011;10509;46.476;7.134;2023-03-01T15:40:52;26.53;;;24.33;;
20142;SDS011;10509;46.476;7.134;2023-03-01T15:46:27;26.90;;;24.50;;
20142;SDS011;10509;46.476;7.134;2023-03-01T15:48:57;33.50;;;25.57;;
20142;SDS011;10509;46.476;7.134;2023-03-01T15:51:28;29.00;;;26.40;;
20142;SDS011;10509;46.476;7.134;2023-03-01T15:53:55;26.53;;;24.40;;
20142;SDS011;10509;46.476;7.134;2023-03-01T15:56:22;27.23;;;24.87;;
20142;SDS011;10509;46.476;7.134;2023-03-01T15:58:49;28.70;;;26.10;;
20142;SDS011;10509;46.476;7.134;2023-03-01T16:01:15;28.53;;;25.83;;
20142;SDS011;10509;46.476;7.134;2023-03-01T16:03:44;27.83;;;25.10;;
20142;SDS011;10509;46.476;7.134;2023-03-01T16:06:10;28.13;;;25.53;;
20142;SDS011;10509;46.476;7.134;2023-03-01T16:08:37;28.50;;;26.07;;
20142;SDS011;10509;46.476;7.134;2023-03-01T16:11:09;28.93;;;26.33;;
20142;SDS011;10509;46.476;7.134;2023-03-01T16:13:36;28.60;;;26.20;;
20142;SDS011;10509;46.476;7.134;2023-03-01T16:16:02;28.73;;;26.13;;
20142;SDS011;10509;46.476;7.134;2023-03-01T16:18:29;29.10;;;26.50;;
20142;SDS011;10509;46.476;7.134;2023-03-01T16:20:55;28.27;;;25.70;;
20142;SDS011;10509;46.476;7.134;2023-03-01T16:23:21;28.77;;;25.97;;
20142;SDS011;10509;46.476;7.134;2023-03-01T16:25:49;29.90;;;27.03;;
20142;SDS011;10509;46.476;7.134;2023-03-01T16:28:15;28.53;;;26.03;;